Time;durP1;ratioP1;P1;durP2;ratioP2;P2;SDS_P1;SDS_P2;PMS_P1;PMS_P2;Temp;Humidity;BMP_temperature;BMP_pressure;BME280_temperature;BME280_humidity;BME280_pressure;Samples;Min_cycle;Max_cycle;Signal;HPM_P1;HPM_P2
2022/12/22 03:27:26;;;;;;;1.13;0.60;;;16.20;71.60;;;;;;5073793;28;45344;-71
2022/12/22 03:29:52;;;;;;;0.57;0.43;;;16.20;71.60;;;;;;5083797;27;45304;-72
2022/12/22 03:32:19;;;;;;;0.80;0.68;;;16.20;71.70;;;;;;5083706;27;45546;-72
2022/12/22 03:34:47;;;;;;;0.82;0.40;;;16.10;71.50;;;;;;5083775;27;45394;-72
2022/12/22 03:37:14;;;;;;;0.50;0.50;;;16.10;71.70;;;;;;5062073;27;45572;-72
2022/12/22 03:39:41;;;;;;;1.20;0.52;;;16.10;71.70;;;;;;5061978;28;45402;-72
2022/12/22 03:47:39;;;;;;;0.50;0.50;;;16.10;71.80;;;;;;5065353;28;45332;-71
2022/12/22 03:50:08;;;;;;;0.85;0.55;;;16.10;71.70;;;;;;5062463;28;45386;-72
2022/12/22 03:52:34;;;;;;;0.50;0.50;;;16.10;71.80;;;;;;5060042;28;45577;-72
2022/12/22 03:55:01;;;;;;;0.50;0.40;;;16.10;71.90;;;;;;5074503;27;46274;-72
2022/12/22 03:57:28;;;;;;;0.50;0.40;;;16.10;71.80;;;;;;5066489;27;45323;-73
2022/12/22 03:59:55;;;;;;;1.00;0.47;;;16.10;71.70;;;;;;5065584;27;45343;-72
2022/12/22 04:02:21;;;;;;;0.73;0.57;;;16.10;71.70;;;;;;5073435;28;45392;-72
2022/12/22 04:04:48;;;;;;;0.75;0.47;;;16.10;71.80;;;;;;5076922;27;45474;-72
2022/12/22 04:07:16;;;;;;;0.68;0.50;;;16.10;71.70;;;;;;5072531;27;45413;-72
2022/12/22 04:12:53;;;;;;;0.50;0.50;;;16.20;71.90;;;;;;5068632;28;45328;-72
2022/12/22 04:15:15;;;;;;;1.65;0.60;;;16.20;71.80;;;;;;5062630;28;45562;-71
2022/12/22 04:17:42;;;;;;;1.90;0.50;;;16.20;71.50;;;;;;5052228;28;45476;-71
2022/12/22 04:20:09;;;;;;;0.63;0.47;;;16.20;71.20;;;;;;5069019;28;45366;-72
2022/12/22 04:22:38;;;;;;;0.73;0.50;;;16.10;70.80;;;;;;5083394;27;45362;-70
2022/12/22 04:25:05;;;;;;;0.38;0.30;;;16.20;70.90;;;;;;5083000;27;47350;-72
2022/12/22 04:27:32;;;;;;;1.23;0.60;;;16.10;70.70;;;;;;5064938;28;45432;-71
2022/12/22 04:30:00;;;;;;;0.60;0.40;;;16.10;70.70;;;;;;5071401;28;45372;-72
2022/12/22 04:32:27;;;;;;;0.30;0.30;;;16.10;70.60;;;;;;5068857;28;45394;-71
2022/12/22 04:34:53;;;;;;;1.40;0.50;;;16.10;70.50;;;;;;5061444;28;47890;-71
2022/12/22 04:37:20;;;;;;;0.95;0.55;;;16.10;70.50;;;;;;5062574;28;45475;-71
2022/12/22 04:39:48;;;;;;;1.05;0.70;;;16.10;70.50;;;;;;5073054;27;45332;-71
2022/12/22 04:42:15;;;;;;;0.85;0.55;;;16.10;70.40;;;;;;5068706;27;45666;-71
2022/12/22 04:44:42;;;;;;;0.65;0.60;;;16.10;70.40;;;;;;5063882;28;47378;-71
2022/12/22 04:47:09;;;;;;;0.55;0.40;;;16.00;70.30;;;;;;5057760;28;45265;-72
2022/12/22 04:49:36;;;;;;;0.63;0.38;;;16.00;70.30;;;;;;5070102;28;45407;-71
2022/12/22 04:52:03;;;;;;;1.77;0.60;;;16.00;70.30;;;;;;5072467;27;45373;-71
2022/12/22 04:54:30;;;;;;;0.63;0.52;;;16.00;70.20;;;;;;5081905;27;45301;-71
2022/12/22 04:56:58;;;;;;;0.68;0.50;;;16.10;70.00;;;;;;5072145;27;45332;-70
2022/12/22 04:59:25;;;;;;;0.55;0.40;;;16.10;69.90;;;;;;5060901;27;45374;-71
2022/12/22 05:01:52;;;;;;;0.40;0.40;;;16.10;70.00;;;;;;5065020;28;45292;-71
2022/12/22 05:04:19;;;;;;;0.57;0.30;;;16.10;69.90;;;;;;5066225;28;45481;-71
2022/12/22 05:06:46;;;;;;;1.17;0.63;;;16.10;69.60;;;;;;5065656;28;45326;-71
2022/12/22 05:09:13;;;;;;;0.90;0.60;;;16.10;69.60;;;;;;5069407;28;45452;-72
2022/12/22 05:11:39;;;;;;;1.15;0.40;;;16.10;70.70;;;;;;5078985;28;45423;-71
2022/12/22 05:14:07;;;;;;;0.57;0.47;;;16.10;69.60;;;;;;5066045;27;47199;-72
2022/12/22 05:16:34;;;;;;;0.43;0.40;;;16.10;69.50;;;;;;5076722;28;45538;-70
2022/12/22 05:19:01;;;;;;;1.00;0.40;;;16.10;69.50;;;;;;5074311;27;45268;-71
2022/12/22 05:21:28;;;;;;;0.50;0.30;;;16.10;69.50;;;;;;5080797;27;45197;-71
2022/12/22 05:23:54;;;;;;;0.90;0.47;;;16.10;69.50;;;;;;5076640;27;46595;-72
2022/12/22 05:26:21;;;;;;;0.52;0.38;;;16.10;69.50;;;;;;5071437;27;45411;-71
2022/12/22 05:28:48;;;;;;;0.40;0.40;;;16.00;69.40;;;;;;5085689;27;45344;-71
2022/12/22 05:31:18;;;;;;;0.65;0.30;;;16.00;69.40;;;;;;5072195;27;45381;-72
2022/12/22 05:33:45;;;;;;;1.75;0.50;;;16.00;69.60;;;;;;5077333;27;45374;-72
2022/12/22 05:36:12;;;;;;;1.02;0.63;;;16.00;69.50;;;;;;5074431;27;45971;-71
2022/12/22 05:38:39;;;;;;;0.40;0.38;;;16.00;69.60;;;;;;5076913;27;45376;-71
2022/12/22 05:41:06;;;;;;;0.47;0.45;;;16.00;69.60;;;;;;5072311;28;45537;-71
2022/12/22 05:43:33;;;;;;;0.75;0.47;;;16.00;69.60;;;;;;5061020;27;45466;-71
2022/12/22 05:46:02;;;;;;;0.40;0.40;;;16.00;69.30;;;;;;5065149;28;45450;-72
2022/12/22 05:48:30;;;;;;;1.83;0.55;;;16.00;69.30;;;;;;5065690;28;45422;-71
2022/12/22 05:50:57;;;;;;;0.88;0.40;;;16.00;69.20;;;;;;5080942;28;45486;-71
2022/12/22 05:53:24;;;;;;;1.55;0.47;;;16.00;69.10;;;;;;5084881;27;46770;-71
2022/12/22 05:55:51;;;;;;;0.75;0.60;;;16.00;69.90;;;;;;5085177;27;45404;-72
2022/12/22 05:58:18;;;;;;;0.88;0.50;;;16.00;68.70;;;;;;5085182;27;45548;-73
2022/12/22 06:00:45;;;;;;;0.47;0.38;;;16.10;68.70;;;;;;5044901;27;45293;-71
2022/12/22 06:03:12;;;;;;;1.10;0.50;;;16.10;68.60;;;;;;5044407;28;46304;-71
2022/12/22 06:05:40;;;;;;;0.93;0.50;;;16.10;68.50;;;;;;5044973;28;45361;-71
2022/12/22 06:08:07;;;;;;;0.50;0.43;;;16.10;68.80;;;;;;5044914;28;45492;-72
2022/12/22 06:10:34;;;;;;;0.30;0.30;;;16.10;69.20;;;;;;5044531;28;45359;-71
2022/12/22 06:13:01;;;;;;;0.45;0.45;;;16.10;69.40;;;;;;5044486;28;47199;-71
2022/12/22 06:15:28;;;;;;;0.50;0.40;;;16.10;69.60;;;;;;5044684;28;45387;-71
2022/12/22 06:17:54;;;;;;;0.80;0.55;;;16.10;69.80;;;;;;5065121;28;45359;-71
2022/12/22 06:20:21;;;;;;;0.47;0.32;;;16.10;69.90;;;;;;5063722;28;45557;-71
2022/12/22 06:22:49;;;;;;;0.60;0.50;;;16.10;70.10;;;;;;5063749;28;46619;-71
2022/12/22 06:25:16;;;;;;;0.45;0.43;;;16.10;70.30;;;;;;5063662;28;45481;-72
2022/12/22 06:27:43;;;;;;;1.00;0.40;;;16.10;70.20;;;;;;5063497;28;45433;-71
2022/12/22 06:30:10;;;;;;;0.45;0.45;;;16.10;70.40;;;;;;5061779;28;45454;-73
2022/12/22 06:32:37;;;;;;;0.55;0.30;;;16.00;70.40;;;;;;5052256;28;46524;-72
2022/12/22 06:35:08;;;;;;;0.98;0.50;;;16.10;70.60;;;;;;5044140;28;45928;-71
2022/12/22 06:37:35;;;;;;;0.70;0.68;;;16.10;70.60;;;;;;5044842;28;45314;-71
2022/12/22 06:40:04;;;;;;;0.75;0.65;;;16.00;70.50;;;;;;5043735;28;45246;-72
2022/12/22 06:45:30;;;;;;;0.65;0.60;;;16.10;70.70;;;;;;5001594;28;45483;-72
2022/12/22 06:47:57;;;;;;;0.80;0.50;;;16.10;70.60;;;;;;5002493;28;45386;-72
2022/12/22 06:50:23;;;;;;;0.57;0.55;;;16.10;70.70;;;;;;5033969;28;45417;-71
2022/12/22 06:52:50;;;;;;;1.60;0.43;;;16.10;70.60;;;;;;5062358;28;46412;-72
2022/12/22 06:55:19;;;;;;;1.20;0.60;;;16.10;70.60;;;;;;5062450;28;45325;-71
2022/12/22 06:57:45;;;;;;;1.02;0.57;;;16.20;70.80;;;;;;5062240;28;45316;-73
2022/12/22 07:00:13;;;;;;;1.13;0.65;;;16.20;70.80;;;;;;5062203;28;45320;-71
2022/12/22 07:02:39;;;;;;;0.80;0.50;;;16.20;70.80;;;;;;5062438;28;47066;-71
2022/12/22 07:05:07;;;;;;;1.67;0.50;;;16.20;70.80;;;;;;5063553;28;45414;-71
2022/12/22 07:07:34;;;;;;;1.10;0.70;;;16.20;70.80;;;;;;5053788;28;45358;-73
2022/12/22 07:10:01;;;;;;;1.10;0.47;;;16.20;70.90;;;;;;5043068;28;45189;-71
2022/12/22 07:12:29;;;;;;;1.13;0.60;;;16.20;70.90;;;;;;5044104;28;47089;-71
2022/12/22 07:14:55;;;;;;;1.30;0.70;;;16.20;71.10;;;;;;5062030;28;45397;-72
2022/12/22 07:17:22;;;;;;;0.98;0.50;;;16.20;71.20;;;;;;5063962;28;45362;-72
2022/12/22 07:19:49;;;;;;;1.33;0.68;;;16.10;71.00;;;;;;5062344;28;45274;-71
2022/12/22 07:22:16;;;;;;;0.75;0.52;;;16.20;71.20;;;;;;5063567;28;47940;-72
2022/12/22 07:24:43;;;;;;;0.60;0.40;;;16.20;71.40;;;;;;5051996;28;45395;-72
2022/12/22 07:27:10;;;;;;;0.70;0.60;;;16.10;71.30;;;;;;5041965;28;45361;-71
2022/12/22 07:29:39;;;;;;;0.95;0.60;;;16.10;71.30;;;;;;5043844;28;45292;-72
2022/12/22 07:32:06;;;;;;;0.82;0.60;;;16.10;71.40;;;;;;5061585;28;47316;-72
2022/12/22 07:34:33;;;;;;;1.20;0.70;;;16.10;71.50;;;;;;5063383;28;45376;-71
2022/12/22 07:36:59;;;;;;;2.28;1.02;;;16.10;71.50;;;;;;5062844;28;45407;-71
2022/12/22 07:39:26;;;;;;;1.48;0.77;;;16.10;71.50;;;;;;5062894;28;45612;-72
2022/12/22 07:44:39;;;;;;;0.80;0.75;;;16.10;72.70;;;;;;5054085;28;45340;-72
2022/12/22 07:47:05;;;;;;;1.08;0.80;;;16.10;71.60;;;;;;5063515;28;45356;-71
2022/12/22 07:52:16;;;;;;;1.13;0.70;;;16.10;70.90;;;;;;5056046;28;45885;-71
2022/12/22 07:54:43;;;;;;;2.80;0.80;;;16.10;71.30;;;;;;5049819;28;45377;-72
2022/12/22 07:57:10;;;;;;;0.68;0.68;;;16.10;71.30;;;;;;5065605;28;45431;-72
2022/12/22 07:59:38;;;;;;;0.90;0.70;;;16.10;71.50;;;;;;5063938;28;45387;-72
2022/12/22 08:02:05;;;;;;;1.15;0.85;;;16.10;71.50;;;;;;5060975;28;45371;-71
2022/12/22 08:04:32;;;;;;;1.00;0.85;;;16.10;71.30;;;;;;5067847;27;45399;-71
2022/12/22 08:06:59;;;;;;;1.67;0.85;;;16.10;71.50;;;;;;5064579;28;45595;-72
2022/12/22 08:09:26;;;;;;;1.10;0.88;;;16.10;71.70;;;;;;5060032;28;45491;-72
2022/12/22 08:11:53;;;;;;;1.52;0.75;;;16.10;72.00;;;;;;5067797;28;45763;-72
2022/12/22 08:14:20;;;;;;;1.55;1.05;;;16.00;71.90;;;;;;5067283;28;45265;-71
2022/12/22 08:16:48;;;;;;;0.70;0.65;;;16.10;72.10;;;;;;5059713;28;45604;-71
2022/12/22 08:19:14;;;;;;;2.28;0.90;;;16.00;72.30;;;;;;5066931;28;45622;-72
2022/12/22 08:21:41;;;;;;;1.60;1.00;;;16.10;72.30;;;;;;5069575;27;47978;-71
2022/12/22 08:24:08;;;;;;;1.23;0.90;;;16.10;72.40;;;;;;5059986;27;45224;-71
2022/12/22 08:26:38;;;;;;;1.80;1.15;;;16.00;72.50;;;;;;5072556;27;45423;-71
2022/12/22 08:29:08;;;;;;;1.38;0.90;;;16.10;72.60;;;;;;5075021;27;45432;-71
2022/12/22 08:31:35;;;;;;;1.35;1.05;;;16.10;72.70;;;;;;5060632;28;47420;-71
2022/12/22 08:34:07;;;;;;;2.28;1.10;;;16.10;72.60;;;;;;5041983;28;45435;-71
2022/12/22 08:36:38;;;;;;;1.20;1.00;;;16.10;72.80;;;;;;5050065;28;45358;-71
2022/12/22 08:39:05;;;;;;;1.58;1.10;;;16.10;72.90;;;;;;5062146;28;45440;-71
2022/12/22 08:41:49;;;;;;;1.40;1.30;;;16.10;72.80;;;;;;5058454;28;46671;-71
2022/12/22 08:44:18;;;;;;;1.65;1.30;;;16.10;72.60;;;;;;5065921;28;45436;-72
2022/12/22 08:46:45;;;;;;;1.27;1.17;;;16.10;72.90;;;;;;5068955;27;45341;-71
2022/12/22 08:49:13;;;;;;;1.30;1.17;;;16.10;73.00;;;;;;5067053;28;45213;-71
2022/12/22 08:51:40;;;;;;;2.60;1.60;;;16.10;73.30;;;;;;5067738;27;47386;-71
2022/12/22 08:54:07;;;;;;;2.15;1.35;;;16.10;73.50;;;;;;5062523;28;45654;-71
2022/12/22 08:56:34;;;;;;;1.38;1.27;;;16.10;73.50;;;;;;5061632;28;45568;-73
2022/12/22 08:59:03;;;;;;;2.10;1.48;;;16.10;73.50;;;;;;5069883;28;45459;-71
2022/12/22 09:01:32;;;;;;;1.33;1.20;;;16.10;73.50;;;;;;5059950;28;46589;-72
2022/12/22 09:03:59;;;;;;;1.13;1.02;;;16.10;73.40;;;;;;5068071;28;45895;-71
2022/12/22 09:06:27;;;;;;;1.40;1.13;;;16.10;73.70;;;;;;5060241;28;45476;-71
2022/12/22 09:08:55;;;;;;;2.88;1.42;;;16.10;73.60;;;;;;5066018;28;45558;-72
2022/12/22 09:11:22;;;;;;;2.05;1.50;;;16.10;73.70;;;;;;5065730;28;46610;-72
2022/12/22 09:13:50;;;;;;;1.65;1.42;;;16.10;73.60;;;;;;5083618;27;45273;-71
2022/12/22 09:16:17;;;;;;;1.75;1.45;;;16.10;73.50;;;;;;5082748;27;45391;-71
2022/12/22 09:19:06;;;;;;;2.72;1.38;;;16.10;73.70;;;;;;5083031;27;45574;-71
2022/12/22 09:21:35;;;;;;;1.95;1.48;;;16.10;73.80;;;;;;5082754;28;46889;-71
2022/12/22 09:24:03;;;;;;;2.22;1.55;;;16.10;73.40;;;;;;5083709;27;45291;-71
2022/12/22 09:26:30;;;;;;;3.33;1.83;;;16.10;73.50;;;;;;5082627;28;45468;-71
2022/12/22 09:28:57;;;;;;;2.15;1.58;;;16.10;73.50;;;;;;5084129;27;45297;-72
2022/12/22 09:31:25;;;;;;;1.88;1.50;;;16.10;73.60;;;;;;5082844;27;46568;-71
2022/12/22 09:33:53;;;;;;;1.77;1.40;;;16.10;73.60;;;;;;5083376;27;45394;-72
2022/12/22 09:36:26;;;;;;;2.28;1.48;;;16.10;73.30;;;;;;5083520;27;45583;-71
2022/12/22 09:38:54;;;;;;;2.15;1.77;;;16.20;73.50;;;;;;5083655;27;45324;-71
2022/12/22 09:41:30;;;;;;;2.63;1.70;;;16.20;73.30;;;;;;5050397;27;46239;-71
2022/12/22 09:43:57;;;;;;;2.08;1.60;;;16.20;73.30;;;;;;5042892;28;45440;-71
2022/12/22 09:46:27;;;;;;;2.25;1.77;;;16.30;73.30;;;;;;5044070;28;45325;-72
2022/12/22 09:48:54;;;;;;;2.72;2.22;;;16.20;73.40;;;;;;5046937;28;45206;-72
2022/12/22 09:51:22;;;;;;;2.45;1.73;;;16.30;74.30;;;;;;5045075;28;46584;-71
2022/12/22 09:54:01;;;;;;;3.60;2.47;;;16.30;73.30;;;;;;5046279;28;45706;-71
2022/12/22 09:56:28;;;;;;;2.65;2.20;;;16.20;73.10;;;;;;5043895;28;45460;-71
2022/12/22 09:58:57;;;;;;;2.65;2.22;;;16.20;73.00;;;;;;5046845;28;45275;-71
2022/12/22 10:01:37;;;;;;;2.90;2.10;;;16.20;72.90;;;;;;5044900;28;45567;-71
2022/12/22 10:04:10;;;;;;;2.88;2.38;;;16.20;72.90;;;;;;5046133;28;45310;-71
2022/12/22 10:06:43;;;;;;;3.03;1.98;;;16.20;72.90;;;;;;5046292;28;45183;-71
2022/12/22 10:09:18;;;;;;;3.00;2.28;;;16.20;72.80;;;;;;5043470;28;45339;-71
2022/12/22 10:11:52;;;;;;;3.50;2.50;;;16.20;72.80;;;;;;5045736;28;45632;-71
2022/12/22 10:14:19;;;;;;;3.50;2.67;;;16.20;72.90;;;;;;5053772;28;45300;-71
2022/12/22 10:16:46;;;;;;;4.63;2.72;;;16.20;72.90;;;;;;5066182;28;45428;-72
2022/12/22 10:19:15;;;;;;;3.13;2.10;;;16.10;72.80;;;;;;5066088;28;45232;-72
2022/12/22 10:21:42;;;;;;;4.25;2.40;;;16.20;72.90;;;;;;5066105;28;45422;-72
2022/12/22 10:24:19;;;;;;;2.95;2.28;;;16.20;72.90;;;;;;5065505;28;45327;-72
2022/12/22 10:26:46;;;;;;;4.05;2.45;;;16.10;72.80;;;;;;5065037;28;45286;-72
2022/12/22 10:29:15;;;;;;;3.17;2.25;;;16.20;73.10;;;;;;5066180;28;45435;-72
2022/12/22 10:32:00;;;;;;;2.90;2.47;;;16.20;72.90;;;;;;5053805;28;46579;-72
2022/12/22 10:34:27;;;;;;;3.17;2.42;;;16.20;72.90;;;;;;5045394;28;45864;-72
2022/12/22 10:36:59;;;;;;;3.42;2.53;;;16.20;72.80;;;;;;5045442;28;45344;-72
2022/12/22 10:39:30;;;;;;;3.78;2.45;;;16.20;72.90;;;;;;5046107;28;45564;-72
2022/12/22 10:42:00;;;;;;;3.00;2.25;;;16.20;72.80;;;;;;5044917;28;46451;-72
2022/12/22 10:44:30;;;;;;;3.13;2.08;;;16.20;72.90;;;;;;5045290;28;45312;-72
2022/12/22 10:46:58;;;;;;;2.78;2.17;;;16.30;73.00;;;;;;5045484;28;45301;-73
2022/12/22 10:49:28;;;;;;;3.92;2.70;;;16.30;73.00;;;;;;5045790;28;45387;-72
2022/12/22 10:51:57;;;;;;;3.95;2.55;;;16.30;72.80;;;;;;5045006;28;46505;-72
2022/12/22 10:54:31;;;;;;;3.25;2.33;;;16.30;72.80;;;;;;5045259;28;45268;-72
2022/12/22 10:57:10;;;;;;;3.63;2.40;;;16.30;72.70;;;;;;5045344;28;45324;-72
2022/12/22 10:59:48;;;;;;;3.75;2.45;;;16.30;72.70;;;;;;5044493;28;45404;-72
2022/12/22 11:02:28;;;;;;;3.40;2.38;;;16.20;72.80;;;;;;5044605;28;46537;-72
2022/12/22 11:05:00;;;;;;;3.80;2.90;;;16.30;72.80;;;;;;5045305;28;45436;-72
2022/12/22 11:07:30;;;;;;;3.13;2.38;;;16.20;72.80;;;;;;5045552;28;45281;-72
2022/12/22 11:09:58;;;;;;;3.05;2.20;;;16.30;72.90;;;;;;5044886;28;45439;-72
2022/12/22 11:12:32;;;;;;;3.65;2.28;;;16.20;72.70;;;;;;5044680;28;46287;-72
2022/12/22 11:15:08;;;;;;;4.95;2.42;;;16.20;72.80;;;;;;5043118;28;45403;-72
2022/12/22 11:17:46;;;;;;;2.88;2.28;;;16.20;72.80;;;;;;5044749;28;45368;-72
2022/12/22 11:20:34;;;;;;;3.70;2.22;;;16.20;72.80;;;;;;5044846;28;45198;-72
2022/12/22 11:23:07;;;;;;;3.63;2.40;;;16.20;72.90;;;;;;5057959;28;46456;-72
2022/12/22 11:25:49;;;;;;;3.55;2.60;;;16.30;72.90;;;;;;5065321;28;45513;-73
2022/12/22 11:28:33;;;;;;;3.45;2.40;;;16.30;72.90;;;;;;5064915;28;45371;-72
2022/12/22 11:31:14;;;;;;;3.20;2.20;;;16.30;72.70;;;;;;5065138;28;45245;-72
2022/12/22 11:33:54;;;;;;;4.10;2.40;;;16.30;72.60;;;;;;5064917;28;45434;-72
2022/12/22 11:36:30;;;;;;;2.75;1.95;;;16.30;72.60;;;;;;5064972;28;45721;-72
2022/12/22 11:39:04;;;;;;;2.88;2.10;;;16.30;72.60;;;;;;5060605;28;45273;-72
2022/12/22 11:41:54;;;;;;;2.70;2.20;;;16.30;73.60;;;;;;5044358;28;45287;-72
2022/12/22 11:44:35;;;;;;;3.13;2.30;;;16.30;72.40;;;;;;5043882;28;46285;-72
2022/12/22 11:47:12;;;;;;;2.45;1.90;;;16.30;72.30;;;;;;5044658;28;45356;-72
2022/12/22 11:50:02;;;;;;;3.13;2.40;;;16.30;72.20;;;;;;5042403;28;45312;-72
2022/12/22 11:52:48;;;;;;;3.95;2.10;;;16.30;72.30;;;;;;5044626;28;45243;-72
2022/12/22 11:55:24;;;;;;;2.38;2.05;;;16.30;72.20;;;;;;5044322;28;47936;-72
2022/12/22 11:58:13;;;;;;;3.72;2.50;;;16.30;72.10;;;;;;5041775;28;45238;-72
2022/12/22 12:01:04;;;;;;;2.55;2.10;;;16.30;72.10;;;;;;5043659;28;45297;-72
2022/12/22 12:04:07;;;;;;;3.08;2.38;;;16.30;72.10;;;;;;5044268;28;45277;-72
2022/12/22 12:07:00;;;;;;;3.28;2.17;;;16.30;72.10;;;;;;5042074;28;46614;-72
2022/12/22 12:09:37;;;;;;;4.47;2.42;;;16.30;72.10;;;;;;5043738;28;45341;-72
2022/12/22 12:12:12;;;;;;;2.80;2.10;;;16.30;73.10;;;;;;5044568;28;45369;-72
2022/12/22 12:14:51;;;;;;;5.22;2.33;;;16.30;72.10;;;;;;5044190;28;45556;-71
2022/12/22 12:17:24;;;;;;;4.78;2.67;;;16.30;72.00;;;;;;5041331;28;46501;-71
2022/12/22 12:20:06;;;;;;;2.38;2.05;;;16.30;71.90;;;;;;5041367;28;45290;-72
2022/12/22 12:22:49;;;;;;;3.95;2.58;;;16.30;71.70;;;;;;5043972;28;45396;-71
2022/12/22 12:25:28;;;;;;;4.05;2.35;;;16.20;71.60;;;;;;5044010;28;45677;-72
2022/12/22 12:28:06;;;;;;;4.25;2.22;;;16.20;71.40;;;;;;5043082;28;47960;-72
2022/12/22 12:30:39;;;;;;;3.03;2.58;;;16.30;71.30;;;;;;5052831;28;45485;-71
2022/12/22 12:33:12;;;;;;;3.88;2.33;;;16.30;71.20;;;;;;5063860;28;45275;-71
2022/12/22 12:35:51;;;;;;;3.58;2.45;;;16.30;71.00;;;;;;5063990;28;45738;-71
2022/12/22 12:38:25;;;;;;;4.00;2.58;;;16.30;70.80;;;;;;5063638;28;48068;-71
2022/12/22 12:40:58;;;;;;;3.30;2.35;;;16.30;71.80;;;;;;5063719;28;45202;-71
2022/12/22 12:43:26;;;;;;;3.72;2.50;;;16.30;70.70;;;;;;5064147;28;45364;-71
2022/12/22 12:45:55;;;;;;;3.10;2.20;;;16.30;70.50;;;;;;5063992;28;45593;-71
2022/12/22 12:48:40;;;;;;;3.13;2.22;;;16.30;70.40;;;;;;5063530;28;46712;-71
2022/12/22 12:51:47;;;;;;;3.13;2.25;;;16.30;70.30;;;;;;5063463;28;45495;-72
2022/12/22 12:54:45;;;;;;;3.17;2.28;;;16.30;70.50;;;;;;5063714;28;45428;-72
2022/12/22 12:57:45;;;;;;;2.97;1.83;;;16.30;70.50;;;;;;5063812;28;45420;-71
2022/12/22 13:00:41;;;;;;;3.05;2.03;;;16.30;70.70;;;;;;5054967;28;47944;-72
2022/12/22 13:03:12;;;;;;;3.28;2.03;;;16.30;70.80;;;;;;5063278;28;45341;-72
2022/12/22 13:05:51;;;;;;;3.25;1.88;;;16.30;70.90;;;;;;5064039;28;45255;-72
2022/12/22 13:08:20;;;;;;;3.08;1.75;;;16.30;71.00;;;;;;5063926;28;45246;-72
2022/12/22 13:11:22;;;;;;;2.95;2.17;;;16.30;72.10;;;;;;5062718;28;47006;-71
2022/12/22 13:13:52;;;;;;;2.80;1.73;;;16.30;71.10;;;;;;5062038;28;45349;-72
2022/12/22 13:16:28;;;;;;;2.08;1.70;;;16.30;71.10;;;;;;5063576;28;45384;-71
2022/12/22 13:18:58;;;;;;;2.42;1.50;;;16.30;71.10;;;;;;5064044;28;45455;-72
2022/12/22 13:21:30;;;;;;;2.65;1.88;;;16.30;71.10;;;;;;5055106;28;47916;-72
2022/12/22 13:24:03;;;;;;;1.88;1.65;;;16.30;71.00;;;;;;5046584;28;45416;-72
2022/12/22 13:26:34;;;;;;;2.83;1.70;;;16.30;71.00;;;;;;5046078;28;45293;-72
2022/12/22 13:29:07;;;;;;;2.65;1.70;;;16.30;71.00;;;;;;5046869;28;45448;-72
2022/12/22 13:31:37;;;;;;;1.88;1.60;;;16.40;71.00;;;;;;5046303;28;48222;-72
2022/12/22 13:34:21;;;;;;;2.15;1.55;;;16.40;71.10;;;;;;5046674;28;45345;-72
2022/12/22 13:36:49;;;;;;;2.30;1.85;;;16.40;71.10;;;;;;5046714;28;45387;-71
2022/12/22 13:39:17;;;;;;;2.83;1.55;;;16.40;71.20;;;;;;5046475;28;45318;-72
2022/12/22 13:41:46;;;;;;;2.28;1.65;;;16.40;71.20;;;;;;5046231;28;45335;-71
2022/12/22 13:44:18;;;;;;;2.33;1.50;;;16.40;71.20;;;;;;5046283;28;45281;-72
2022/12/22 13:46:45;;;;;;;2.35;1.75;;;16.40;71.20;;;;;;5046915;28;45494;-72
2022/12/22 13:49:18;;;;;;;1.55;1.25;;;16.40;71.40;;;;;;5046891;28;45210;-71
2022/12/22 13:51:47;;;;;;;3.03;1.70;;;16.40;71.40;;;;;;5045794;28;45356;-71
2022/12/22 13:54:17;;;;;;;1.90;1.50;;;16.40;71.40;;;;;;5046517;28;45211;-71
2022/12/22 13:56:48;;;;;;;3.13;1.65;;;16.40;71.40;;;;;;5046369;28;45303;-71
2022/12/22 13:59:28;;;;;;;2.15;1.70;;;16.30;71.30;;;;;;5046215;28;45433;-71
2022/12/22 14:01:59;;;;;;;2.10;1.30;;;16.30;71.40;;;;;;5045064;28;46245;-72
2022/12/22 14:04:28;;;;;;;1.58;1.10;;;16.30;71.50;;;;;;5044345;28;45230;-72
2022/12/22 14:06:55;;;;;;;1.85;1.42;;;16.40;71.70;;;;;;5046397;28;45477;-72
2022/12/22 14:09:23;;;;;;;2.88;1.42;;;16.30;71.70;;;;;;5046012;28;45422;-72
2022/12/22 14:11:54;;;;;;;2.53;1.40;;;16.40;71.70;;;;;;5049225;28;48569;-71
2022/12/22 14:14:25;;;;;;;1.95;1.38;;;16.30;71.70;;;;;;5066012;28;45386;-71
2022/12/22 14:16:54;;;;;;;1.77;1.33;;;16.30;71.80;;;;;;5066342;28;45326;-71
2022/12/22 14:19:22;;;;;;;2.10;1.50;;;16.30;71.50;;;;;;5065776;28;45299;-72
2022/12/22 14:22:01;;;;;;;1.50;1.20;;;16.40;71.60;;;;;;5065544;28;47228;-71
2022/12/22 14:24:30;;;;;;;1.45;1.20;;;16.40;71.50;;;;;;5065702;28;45982;-72
2022/12/22 14:26:57;;;;;;;1.23;1.00;;;16.40;71.40;;;;;;5065160;28;45373;-72
2022/12/22 14:29:27;;;;;;;1.27;1.10;;;16.40;71.40;;;;;;5066152;28;45443;-71
2022/12/22 14:31:55;;;;;;;1.73;1.02;;;16.40;72.40;;;;;;5065445;28;46547;-71
2022/12/22 14:34:27;;;;;;;2.15;1.13;;;16.40;71.40;;;;;;5066109;28;45278;-71
2022/12/22 14:36:56;;;;;;;2.05;1.13;;;16.40;71.40;;;;;;5066308;28;45265;-71
2022/12/22 14:39:25;;;;;;;1.38;1.00;;;16.40;71.40;;;;;;5065799;28;45306;-71
2022/12/22 14:41:54;;;;;;;1.10;1.00;;;16.40;71.30;;;;;;5065216;28;46977;-71
2022/12/22 14:44:25;;;;;;;0.98;0.70;;;16.40;71.40;;;;;;5065851;28;45449;-71
2022/12/22 14:47:17;;;;;;;0.90;0.85;;;16.40;71.20;;;;;;5064716;28;45749;-71
2022/12/22 14:49:47;;;;;;;2.35;0.93;;;16.30;70.60;;;;;;5054606;28;45297;-72
2022/12/22 14:52:24;;;;;;;0.88;0.80;;;16.30;70.40;;;;;;5064609;28;47140;-71
2022/12/22 14:54:53;;;;;;;3.72;0.90;;;16.30;70.30;;;;;;5064860;28;45481;-71
2022/12/22 14:57:27;;;;;;;0.80;0.68;;;16.30;70.00;;;;;;5065259;28;45368;-71
2022/12/22 15:00:03;;;;;;;1.15;0.90;;;16.30;69.80;;;;;;5064972;28;45446;-71
2022/12/22 15:02:33;;;;;;;1.70;0.93;;;16.30;69.70;;;;;;5064268;28;46318;-71
2022/12/22 15:05:16;;;;;;;1.27;0.68;;;16.30;69.60;;;;;;5065228;28;45379;-71
2022/12/22 15:07:50;;;;;;;0.95;0.70;;;16.30;69.40;;;;;;5065284;28;45286;-71
2022/12/22 15:10:17;;;;;;;1.23;0.90;;;16.30;69.20;;;;;;5065640;28;45204;-71
2022/12/22 15:12:45;;;;;;;0.93;0.77;;;16.20;69.10;;;;;;5064692;28;45596;-71
2022/12/22 15:15:16;;;;;;;1.00;0.73;;;16.30;69.10;;;;;;5065080;28;45300;-71
2022/12/22 15:17:46;;;;;;;0.90;0.70;;;16.30;68.90;;;;;;5052930;28;45384;-72
2022/12/22 15:20:21;;;;;;;0.98;0.70;;;16.30;68.90;;;;;;5045686;28;45492;-72
2022/12/22 15:22:50;;;;;;;1.13;0.68;;;16.30;68.90;;;;;;5043946;28;45441;-71
2022/12/22 15:25:19;;;;;;;1.25;0.70;;;16.30;68.70;;;;;;5044536;28;45250;-73
2022/12/22 15:27:46;;;;;;;0.77;0.75;;;16.30;68.50;;;;;;5043679;28;45458;-71
2022/12/22 15:30:16;;;;;;;1.52;0.80;;;16.30;68.40;;;;;;5044617;28;45583;-72
2022/12/22 15:32:43;;;;;;;1.88;0.90;;;16.40;68.70;;;;;;5044359;28;45310;-71
2022/12/22 15:35:24;;;;;;;0.80;0.60;;;16.40;69.00;;;;;;5044155;28;45383;-72
2022/12/22 15:37:52;;;;;;;1.38;0.80;;;16.40;69.20;;;;;;5044622;28;45260;-71
2022/12/22 15:40:21;;;;;;;0.93;0.65;;;16.30;69.20;;;;;;5044467;28;45551;-72
2022/12/22 15:42:48;;;;;;;0.88;0.70;;;16.30;69.40;;;;;;5044469;28;46146;-71
2022/12/22 15:45:16;;;;;;;0.70;0.70;;;16.30;69.50;;;;;;5043202;28;45270;-71
2022/12/22 15:47:45;;;;;;;0.70;0.70;;;16.30;69.60;;;;;;5051249;28;45391;-71
2022/12/22 15:50:17;;;;;;;1.05;0.70;;;16.30;69.80;;;;;;5064863;28;45341;-71
2022/12/22 15:52:49;;;;;;;0.85;0.63;;;16.30;69.90;;;;;;5062884;28;45485;-72
2022/12/22 15:55:18;;;;;;;1.15;0.70;;;16.30;70.00;;;;;;5048143;28;45292;-71
2022/12/22 15:57:45;;;;;;;1.55;0.80;;;16.30;70.10;;;;;;5044324;28;45296;-71
2022/12/22 16:00:14;;;;;;;1.17;0.80;;;16.30;70.00;;;;;;5044347;28;45291;-72
2022/12/22 16:02:40;;;;;;;2.45;0.82;;;16.30;70.10;;;;;;5042830;28;47732;-71
2022/12/22 16:05:08;;;;;;;0.98;0.50;;;16.30;70.20;;;;;;5043895;28;45318;-71
2022/12/22 16:07:36;;;;;;;1.23;0.70;;;16.30;70.30;;;;;;5043980;28;45406;-71
2022/12/22 16:10:04;;;;;;;0.47;0.47;;;16.30;70.40;;;;;;5044285;28;45554;-71
2022/12/22 16:12:33;;;;;;;1.02;0.70;;;16.30;70.30;;;;;;5043398;28;45312;-71
2022/12/22 16:15:01;;;;;;;0.88;0.70;;;16.30;70.30;;;;;;5043655;28;45396;-71
2022/12/22 16:17:29;;;;;;;0.90;0.68;;;16.30;70.50;;;;;;5046799;28;45436;-73
2022/12/22 16:19:57;;;;;;;1.00;0.70;;;16.30;70.40;;;;;;5061168;28;45486;-73
2022/12/22 16:22:31;;;;;;;0.80;0.70;;;16.40;70.50;;;;;;5051197;28;47561;-73
2022/12/22 16:24:58;;;;;;;1.33;0.75;;;16.30;70.80;;;;;;5056042;28;45719;-71
2022/12/22 16:27:25;;;;;;;1.63;0.80;;;16.30;70.60;;;;;;5047878;28;46082;-72
2022/12/22 16:29:54;;;;;;;0.73;0.60;;;16.40;70.00;;;;;;5055075;28;45381;-72
2022/12/22 16:32:25;;;;;;;1.30;0.43;;;16.40;70.30;;;;;;5059297;28;48437;-72
2022/12/22 16:34:52;;;;;;;3.33;0.60;;;16.40;70.60;;;;;;5077554;28;45575;-72
2022/12/22 16:37:19;;;;;;;0.80;0.50;;;16.40;70.80;;;;;;5061227;27;45445;-72
2022/12/22 16:39:46;;;;;;;4.57;0.73;;;16.40;71.10;;;;;;5052051;27;45475;-73
2022/12/22 16:42:16;;;;;;;1.88;0.70;;;16.30;71.30;;;;;;5052594;28;45480;-72
2022/12/22 16:44:43;;;;;;;1.17;0.60;;;16.30;71.10;;;;;;5068087;28;45301;-72
2022/12/22 16:47:17;;;;;;;0.82;0.70;;;16.20;71.20;;;;;;5071353;28;45264;-72
2022/12/22 16:49:45;;;;;;;1.17;0.77;;;16.30;71.50;;;;;;5066885;27;45271;-72